Time;durP1;ratioP1;P1;durP2;ratioP2;P2;SDS_P1;SDS_P2;PMS_P1;PMS_P2;Temp;Humidity;BMP_temperature;BMP_pressure;BME280_temperature;BME280_humidity;BME280_pressure;Samples;Min_cycle;Max_cycle;Signal;HPM_P1;HPM_P2
2024/01/11 00:01:14;;;;;;;40.13;21.75;;;-5.30;99.90;;;;;;5030515;28;20123;-78
2024/01/11 00:03:39;;;;;;;37.67;20.50;;;-5.30;99.90;;;;;;5030703;28;20199;-78
2024/01/11 00:06:05;;;;;;;38.30;19.92;;;-5.40;99.90;;;;;;5031012;28;20092;-78
2024/01/11 00:08:31;;;;;;;38.42;21.23;;;-5.40;99.90;;;;;;5042459;28;20044;-78
2024/01/11 00:10:56;;;;;;;38.35;20.35;;;-5.40;99.90;;;;;;5050486;28;20033;-78
2024/01/11 00:13:22;;;;;;;38.42;20.63;;;-5.30;99.90;;;;;;5050912;28;20041;-78
2024/01/11 00:15:47;;;;;;;37.30;20.65;;;-5.40;99.90;;;;;;5050536;28;20056;-78
2024/01/11 00:18:13;;;;;;;37.85;20.80;;;-5.40;99.90;;;;;;5050246;28;20499;-78
2024/01/11 00:20:39;;;;;;;38.10;19.95;;;-5.30;99.90;;;;;;5034017;28;20042;-78
2024/01/11 00:23:04;;;;;;;40.00;21.05;;;-5.30;99.90;;;;;;5029855;28;20210;-78
2024/01/11 00:25:30;;;;;;;39.58;21.60;;;-5.30;99.90;;;;;;5030486;28;20072;-78
2024/01/11 00:27:55;;;;;;;42.00;21.75;;;-5.40;99.90;;;;;;5029640;28;20053;-78
2024/01/11 00:30:23;;;;;;;40.78;21.25;;;-5.40;99.90;;;;;;5029618;28;20056;-78
2024/01/11 00:32:48;;;;;;;40.10;20.88;;;-5.40;99.90;;;;;;5015323;28;20426;-78
2024/01/11 00:35:14;;;;;;;40.67;20.50;;;-5.40;99.90;;;;;;5012357;28;20045;-78
2024/01/11 00:37:39;;;;;;;37.92;20.23;;;-5.40;99.90;;;;;;5029959;28;20706;-78
2024/01/11 00:40:06;;;;;;;40.97;22.50;;;-5.40;99.90;;;;;;5031164;28;20041;-78
2024/01/11 00:42:31;;;;;;;39.03;21.45;;;-5.40;99.90;;;;;;5030126;28;20081;-78
2024/01/11 00:44:57;;;;;;;41.40;21.70;;;-5.40;99.90;;;;;;5030390;28;20115;-78
2024/01/11 00:47:22;;;;;;;38.83;21.08;;;-5.40;99.90;;;;;;5029583;28;20045;-78
2024/01/11 00:49:48;;;;;;;36.72;19.50;;;-5.40;99.90;;;;;;5045083;28;20045;-78
2024/01/11 00:52:13;;;;;;;41.85;21.42;;;-5.40;99.90;;;;;;5046023;28;20535;-78
2024/01/11 00:54:40;;;;;;;37.63;20.48;;;-5.40;99.90;;;;;;5029583;28;20462;-78
2024/01/11 00:57:05;;;;;;;41.90;21.00;;;-5.40;99.90;;;;;;5028635;28;20080;-78
2024/01/11 00:59:31;;;;;;;40.60;21.15;;;-5.40;99.90;;;;;;4995248;28;20088;-78
2024/01/11 01:01:56;;;;;;;42.15;21.17;;;-5.40;99.90;;;;;;5028967;28;20111;-78
2024/01/11 01:04:22;;;;;;;41.65;21.90;;;-5.40;99.90;;;;;;5043346;28;20056;-78
2024/01/11 01:06:47;;;;;;;42.80;20.13;;;-5.40;99.90;;;;;;5049732;28;20044;-78
2024/01/11 01:09:13;;;;;;;42.95;22.48;;;-5.40;99.90;;;;;;5049126;28;20453;-78
2024/01/11 01:11:39;;;;;;;41.40;21.05;;;-5.40;99.90;;;;;;5014985;28;20052;-78
2024/01/11 01:14:05;;;;;;;42.58;20.13;;;-5.30;99.90;;;;;;5023062;28;20083;-78
2024/01/11 01:16:30;;;;;;;39.30;20.42;;;-5.40;99.90;;;;;;5010762;28;20703;-78
2024/01/11 01:18:56;;;;;;;38.50;19.45;;;-5.40;99.90;;;;;;5010744;28;20089;-78
2024/01/11 01:21:22;;;;;;;43.28;21.55;;;-5.40;99.90;;;;;;5011444;28;20495;-78
2024/01/11 01:23:47;;;;;;;45.00;21.63;;;-5.40;99.90;;;;;;5028664;28;20148;-78
2024/01/11 01:26:13;;;;;;;43.15;21.80;;;-5.40;99.90;;;;;;5029280;28;20045;-78
2024/01/11 01:28:40;;;;;;;43.45;21.52;;;-5.40;99.90;;;;;;5028900;28;20099;-78
2024/01/11 01:31:06;;;;;;;43.22;22.65;;;-5.40;99.90;;;;;;5027836;28;20144;-78
2024/01/11 01:33:31;;;;;;;44.28;21.55;;;-5.40;99.90;;;;;;5028970;28;20191;-78
2024/01/11 01:35:57;;;;;;;43.10;21.42;;;-5.40;99.90;;;;;;5028758;28;20121;-78
2024/01/11 01:38:24;;;;;;;42.40;21.05;;;-5.40;99.90;;;;;;5028941;28;20045;-78
2024/01/11 01:40:49;;;;;;;41.05;20.88;;;-5.40;99.90;;;;;;5048925;28;20048;-78
2024/01/11 01:43:15;;;;;;;40.47;21.45;;;-5.40;99.90;;;;;;5048764;28;20044;-78
2024/01/11 01:45:40;;;;;;;46.70;21.05;;;-5.50;99.90;;;;;;5041999;28;20042;-78
2024/01/11 01:48:07;;;;;;;43.28;21.50;;;-5.50;99.90;;;;;;5028784;28;20048;-78
2024/01/11 01:50:33;;;;;;;42.67;20.48;;;-5.50;99.90;;;;;;5010757;28;20128;-78
2024/01/11 01:52:59;;;;;;;44.08;21.35;;;-5.60;99.90;;;;;;5010468;28;20156;-78
2024/01/11 01:55:27;;;;;;;41.63;20.08;;;-5.50;99.90;;;;;;5028868;28;20046;-78
2024/01/11 01:57:54;;;;;;;43.05;21.00;;;-5.60;99.90;;;;;;5028691;28;20431;-78
2024/01/11 02:00:20;;;;;;;43.55;21.27;;;-5.60;99.90;;;;;;5028255;28;20041;-78
2024/01/11 02:02:49;;;;;;;44.13;20.90;;;-5.50;99.90;;;;;;5028500;28;20093;-78
2024/01/11 02:05:17;;;;;;;45.08;21.38;;;-5.60;99.90;;;;;;5044222;28;20045;-78
2024/01/11 02:07:44;;;;;;;43.03;20.38;;;-5.60;99.90;;;;;;5029823;28;20049;-78
2024/01/11 02:10:09;;;;;;;43.30;20.95;;;-5.60;99.90;;;;;;5048815;28;20090;-78
2024/01/11 02:12:37;;;;;;;42.67;20.55;;;-5.60;99.90;;;;;;5046431;28;20072;-78
2024/01/11 02:15:03;;;;;;;42.60;20.77;;;-5.60;99.90;;;;;;5042666;28;20045;-78
2024/01/11 02:17:32;;;;;;;41.30;20.35;;;-5.60;99.90;;;;;;5028554;28;20048;-78
2024/01/11 02:19:58;;;;;;;40.88;21.52;;;-5.60;99.90;;;;;;4993916;28;20061;-78
2024/01/11 02:22:37;;;;;;;44.00;20.85;;;-5.70;99.90;;;;;;5026963;28;20041;-78
2024/01/11 02:25:03;;;;;;;43.70;21.90;;;-5.70;99.90;;;;;;5008125;28;20045;-78
2024/01/11 02:27:29;;;;;;;42.28;21.33;;;-5.80;99.90;;;;;;5008445;28;20076;-78
2024/01/11 02:29:54;;;;;;;39.55;19.95;;;-5.70;99.90;;;;;;5008573;28;20046;-78
2024/01/11 02:32:20;;;;;;;40.67;19.75;;;-5.80;99.90;;;;;;5008429;28;20828;-78
2024/01/11 02:34:46;;;;;;;44.42;22.40;;;-5.80;99.90;;;;;;5007061;28;20088;-78
2024/01/11 02:37:12;;;;;;;40.88;20.52;;;-5.80;99.90;;;;;;5009321;28;20056;-78
2024/01/11 02:39:38;;;;;;;38.45;20.95;;;-5.80;99.90;;;;;;5009131;28;20049;-77
2024/01/11 02:42:04;;;;;;;43.92;20.35;;;-5.90;99.90;;;;;;5027520;28;20087;-77
2024/01/11 02:44:29;;;;;;;40.20;19.35;;;-5.90;99.90;;;;;;4994025;28;20503;-78
2024/01/11 02:46:55;;;;;;;44.72;21.00;;;-5.90;99.90;;;;;;5009516;28;20396;-77
2024/01/11 02:49:21;;;;;;;42.97;21.20;;;-5.90;99.90;;;;;;5040887;28;20486;-78
2024/01/11 02:51:46;;;;;;;42.78;20.60;;;-5.90;99.90;;;;;;5029756;28;20102;-78
2024/01/11 02:54:12;;;;;;;41.58;19.27;;;-5.90;99.90;;;;;;5047515;28;20033;-78
2024/01/11 02:56:38;;;;;;;41.50;19.98;;;-6.00;99.90;;;;;;5027316;28;20462;-78
2024/01/11 02:59:03;;;;;;;42.75;19.42;;;-6.00;99.90;;;;;;5027299;28;20073;-78
2024/01/11 03:01:29;;;;;;;42.50;22.38;;;-6.00;99.90;;;;;;5027386;28;20983;-78
2024/01/11 03:03:56;;;;;;;41.83;21.67;;;-6.00;99.90;;;;;;5009789;28;20049;-78
2024/01/11 03:06:22;;;;;;;40.55;20.48;;;-6.00;99.90;;;;;;5009880;28;20053;-78
2024/01/11 03:08:50;;;;;;;44.40;20.50;;;-6.00;99.90;;;;;;5024637;28;20049;-78
2024/01/11 03:11:16;;;;;;;39.67;19.42;;;-6.00;99.90;;;;;;5009514;28;20045;-78
2024/01/11 03:13:42;;;;;;;45.20;20.95;;;-6.10;99.90;;;;;;5028561;28;20047;-78
2024/01/11 03:16:08;;;;;;;41.85;20.58;;;-6.00;99.90;;;;;;5027820;28;20790;-78
2024/01/11 03:18:33;;;;;;;44.97;21.58;;;-6.00;99.90;;;;;;5027649;28;20095;-78
2024/01/11 03:20:59;;;;;;;44.30;20.75;;;-6.10;99.90;;;;;;5027664;28;20052;-78
2024/01/11 03:23:24;;;;;;;49.53;21.83;;;-6.10;99.90;;;;;;5030092;28;20550;-78
2024/01/11 03:25:50;;;;;;;44.53;21.35;;;-6.10;99.90;;;;;;5030773;28;20407;-78
2024/01/11 03:28:16;;;;;;;43.40;23.10;;;-6.10;99.90;;;;;;5037019;28;20116;-78
2024/01/11 03:30:41;;;;;;;44.05;20.63;;;-6.10;99.90;;;;;;5051204;28;20454;-78
2024/01/11 03:33:07;;;;;;;43.20;21.05;;;-6.10;99.90;;;;;;5051133;28;20132;-78
2024/01/11 03:35:32;;;;;;;46.13;21.40;;;-6.10;99.90;;;;;;5033551;28;20069;-77
2024/01/11 03:37:58;;;;;;;43.67;19.88;;;-6.10;99.90;;;;;;5038792;28;20041;-78
2024/01/11 03:40:23;;;;;;;43.60;20.05;;;-6.10;99.90;;;;;;5031247;28;20048;-78
2024/01/11 03:42:49;;;;;;;46.00;21.58;;;-6.10;99.90;;;;;;4997348;28;20119;-78
2024/01/11 03:45:19;;;;;;;43.00;20.52;;;-6.10;99.90;;;;;;5030199;28;20045;-78
2024/01/11 03:47:44;;;;;;;45.15;22.48;;;-6.20;99.90;;;;;;5031038;28;20160;-78
2024/01/11 03:50:10;;;;;;;45.28;21.85;;;-6.20;99.90;;;;;;5031259;28;20128;-78
2024/01/11 03:52:36;;;;;;;44.97;21.52;;;-6.20;99.90;;;;;;5030299;28;20044;-78
2024/01/11 03:55:01;;;;;;;41.03;20.17;;;-6.20;99.90;;;;;;5030556;28;20052;-78
2024/01/11 03:57:27;;;;;;;42.13;20.05;;;-6.20;99.90;;;;;;5030884;28;20041;-77
2024/01/11 03:59:53;;;;;;;44.85;21.73;;;-6.30;99.90;;;;;;5030942;28;20045;-77
2024/01/11 04:02:18;;;;;;;39.67;20.52;;;-6.30;99.90;;;;;;5030783;28;20108;-78
2024/01/11 04:04:44;;;;;;;43.22;19.17;;;-6.20;99.90;;;;;;5031657;28;20089;-78
2024/01/11 04:07:10;;;;;;;40.97;20.00;;;-6.30;99.90;;;;;;5030340;28;20042;-78
2024/01/11 04:09:40;;;;;;;43.65;21.25;;;-6.30;99.90;;;;;;5013057;28;20486;-78
2024/01/11 04:12:06;;;;;;;40.75;19.75;;;-6.30;99.90;;;;;;5030233;28;20080;-78
2024/01/11 04:14:31;;;;;;;43.33;20.48;;;-6.30;99.90;;;;;;5036233;28;20118;-78
2024/01/11 04:16:57;;;;;;;40.75;20.42;;;-6.30;99.90;;;;;;5033566;28;20490;-78
2024/01/11 04:19:23;;;;;;;41.83;20.70;;;-6.30;99.90;;;;;;5030501;28;20124;-78
2024/01/11 04:21:48;;;;;;;44.70;20.10;;;-6.40;99.90;;;;;;5030107;28;20045;-78
2024/01/11 04:24:14;;;;;;;40.90;19.48;;;-6.40;99.90;;;;;;5030518;28;20077;-78
2024/01/11 04:26:40;;;;;;;45.65;21.00;;;-6.40;99.90;;;;;;5030050;28;20068;-78
2024/01/11 04:29:05;;;;;;;45.03;22.15;;;-6.40;99.90;;;;;;5029290;28;20111;-78
2024/01/11 04:31:31;;;;;;;42.22;21.23;;;-6.40;99.90;;;;;;5028141;28;20045;-78
2024/01/11 04:33:57;;;;;;;41.50;19.73;;;-6.40;99.90;;;;;;5011550;28;20091;-78
2024/01/11 04:36:22;;;;;;;46.42;21.33;;;-6.50;99.90;;;;;;5031104;28;20095;-78
2024/01/11 04:38:48;;;;;;;42.65;20.15;;;-6.50;99.90;;;;;;5029968;28;20076;-78
2024/01/11 04:41:14;;;;;;;42.15;20.45;;;-6.50;99.90;;;;;;5030307;28;20212;-78
2024/01/11 04:43:44;;;;;;;42.20;21.33;;;-6.50;99.90;;;;;;5029952;28;20095;-78
2024/01/11 04:46:20;;;;;;;39.53;19.90;;;-6.50;99.90;;;;;;5028830;28;20041;-78
2024/01/11 04:48:47;;;;;;;43.63;20.63;;;-6.50;99.90;;;;;;5011530;28;20060;-78
2024/01/11 04:51:13;;;;;;;42.25;19.88;;;-6.50;99.90;;;;;;5029699;28;20041;-77
2024/01/11 04:53:39;;;;;;;43.47;20.75;;;-6.50;99.90;;;;;;5029435;28;20049;-77
2024/01/11 04:56:07;;;;;;;46.97;21.55;;;-6.50;99.90;;;;;;5030767;28;20229;-77
2024/01/11 04:58:33;;;;;;;40.95;20.25;;;-6.50;99.90;;;;;;5029874;28;20047;-77
2024/01/11 05:00:59;;;;;;;44.88;19.92;;;-6.50;99.90;;;;;;5028586;28;20041;-77
2024/01/11 05:03:25;;;;;;;46.72;22.60;;;-6.50;99.90;;;;;;5029689;28;20053;-78
2024/01/11 05:05:51;;;;;;;46.03;22.33;;;-6.50;99.90;;;;;;5029037;28;20041;-77
2024/01/11 05:08:16;;;;;;;43.83;20.58;;;-6.50;99.90;;;;;;5030485;28;20059;-77
2024/01/11 05:10:42;;;;;;;45.72;21.33;;;-6.50;99.90;;;;;;5011545;28;20041;-77
2024/01/11 05:13:08;;;;;;;50.25;22.98;;;-6.50;99.90;;;;;;5029185;28;20050;-77
2024/01/11 05:15:34;;;;;;;45.83;22.30;;;-6.50;99.90;;;;;;5029710;28;20045;-77
2024/01/11 05:18:00;;;;;;;46.80;22.05;;;-6.50;99.90;;;;;;5017987;28;20049;-77
2024/01/11 05:20:25;;;;;;;50.60;22.77;;;-6.50;99.90;;;;;;5042958;28;20057;-78
2024/01/11 05:22:51;;;;;;;50.55;24.45;;;-6.50;99.90;;;;;;5011528;28;20045;-77
2024/01/11 05:25:16;;;;;;;52.10;24.70;;;-6.50;99.90;;;;;;5029685;28;20411;-78
2024/01/11 05:27:42;;;;;;;45.80;21.83;;;-6.50;99.90;;;;;;5029096;28;20136;-77
2024/01/11 05:30:08;;;;;;;45.15;21.42;;;-6.50;99.90;;;;;;5028866;28;20041;-78
2024/01/11 05:32:33;;;;;;;46.72;23.00;;;-6.40;99.90;;;;;;5029128;28;20381;-78
2024/01/11 05:34:59;;;;;;;51.40;23.40;;;-6.40;99.90;;;;;;5028345;28;20038;-77
2024/01/11 05:37:25;;;;;;;49.22;22.45;;;-6.30;99.90;;;;;;5028058;28;20049;-77
2024/01/11 05:39:51;;;;;;;49.38;22.52;;;-6.30;99.90;;;;;;5027396;28;20049;-78
2024/01/11 05:42:17;;;;;;;47.40;22.67;;;-6.20;99.90;;;;;;5027894;28;20049;-77
2024/01/11 05:44:43;;;;;;;49.55;23.15;;;-6.10;99.90;;;;;;5028527;28;20693;-77
2024/01/11 05:47:10;;;;;;;52.42;24.88;;;-6.00;99.90;;;;;;5028186;28;20482;-77
2024/01/11 05:49:36;;;;;;;48.83;22.02;;;-5.80;99.90;;;;;;5028870;28;20042;-77
2024/01/11 05:52:02;;;;;;;48.08;23.70;;;-5.70;99.90;;;;;;5027758;28;20111;-78
2024/01/11 05:54:28;;;;;;;49.72;23.17;;;-5.60;99.90;;;;;;5029258;28;20041;-78
2024/01/11 05:56:56;;;;;;;44.53;21.45;;;-5.60;99.90;;;;;;5027811;28;20122;-78
2024/01/11 05:59:22;;;;;;;51.88;23.55;;;-5.50;99.90;;;;;;5028333;28;20049;-78
2024/01/11 06:01:47;;;;;;;49.90;23.88;;;-5.40;99.90;;;;;;5025956;28;20132;-78
2024/01/11 06:04:13;;;;;;;54.40;25.63;;;-5.30;99.90;;;;;;5028673;28;20117;-78
2024/01/11 06:06:40;;;;;;;50.13;24.50;;;-5.20;99.90;;;;;;5027909;28;20041;-78
2024/01/11 06:09:06;;;;;;;49.28;22.17;;;-5.10;99.90;;;;;;5027559;28;20564;-78
2024/01/11 06:11:31;;;;;;;48.67;22.48;;;-5.10;99.90;;;;;;5028633;28;20133;-78
2024/01/11 06:13:57;;;;;;;47.55;23.27;;;-5.00;99.90;;;;;;5027599;28;20501;-78
2024/01/11 06:16:23;;;;;;;42.75;22.13;;;-4.90;99.90;;;;;;5029608;28;20507;-78
2024/01/11 06:18:50;;;;;;;48.85;22.17;;;-4.80;99.90;;;;;;4992889;28;20045;-78
2024/01/11 06:21:16;;;;;;;50.03;22.73;;;-4.80;99.90;;;;;;5028598;28;20091;-78
2024/01/11 06:23:44;;;;;;;46.55;23.00;;;-4.70;99.90;;;;;;5010264;28;20094;-78
2024/01/11 06:26:10;;;;;;;44.95;22.50;;;-4.60;99.90;;;;;;5016495;28;20050;-78
2024/01/11 06:28:35;;;;;;;44.35;22.75;;;-4.50;99.90;;;;;;5027922;28;20038;-78
2024/01/11 06:31:01;;;;;;;48.45;23.77;;;-4.50;99.90;;;;;;5028519;28;20652;-78
2024/01/11 06:33:28;;;;;;;49.78;23.77;;;-4.40;99.90;;;;;;5028138;28;20049;-77
2024/01/11 06:35:53;;;;;;;46.10;23.98;;;-4.40;99.90;;;;;;5028234;28;20049;-77
2024/01/11 06:38:19;;;;;;;48.05;24.40;;;-4.30;99.90;;;;;;5009144;28;20076;-77
2024/01/11 06:40:44;;;;;;;50.65;25.73;;;-4.30;99.90;;;;;;5025349;28;20059;-81
2024/01/11 06:43:11;;;;;;;56.33;27.88;;;-4.20;99.90;;;;;;5027311;28;20132;-78
2024/01/11 06:45:36;;;;;;;62.50;31.73;;;-4.10;99.90;;;;;;5027143;28;20556;-78
2024/01/11 06:48:02;;;;;;;61.40;29.40;;;-4.10;99.90;;;;;;5024647;28;20049;-76
2024/01/11 06:50:28;;;;;;;54.08;26.42;;;-4.00;99.90;;;;;;5028099;28;20128;-77
2024/01/11 06:52:54;;;;;;;51.47;24.67;;;-4.00;99.90;;;;;;5024469;28;20503;-77
2024/01/11 06:55:19;;;;;;;48.00;23.77;;;-3.90;99.90;;;;;;5027834;28;20050;-78
2024/01/11 06:57:48;;;;;;;47.55;24.35;;;-3.90;99.90;;;;;;5018926;28;20544;-77
2024/01/11 07:00:14;;;;;;;46.25;22.80;;;-3.90;99.90;;;;;;5047849;28;20329;-78
2024/01/11 07:02:40;;;;;;;50.58;24.70;;;-3.80;99.90;;;;;;5029914;28;20069;-77
2024/01/11 07:05:06;;;;;;;50.47;25.00;;;-3.80;99.90;;;;;;5030524;28;20056;-76
2024/01/11 07:07:32;;;;;;;53.38;25.55;;;-3.80;99.90;;;;;;5026648;28;20041;-76
2024/01/11 07:09:58;;;;;;;60.90;34.42;;;-3.70;99.90;;;;;;5026573;28;20053;-76
2024/01/11 07:12:25;;;;;;;55.17;29.13;;;-3.70;99.90;;;;;;5011836;28;20056;-77
2024/01/11 07:14:51;;;;;;;53.40;28.08;;;-3.60;99.90;;;;;;5026745;28;20041;-76
2024/01/11 07:17:17;;;;;;;52.75;25.58;;;-3.50;99.90;;;;;;5008470;28;20127;-76
2024/01/11 07:19:42;;;;;;;51.55;24.58;;;-3.50;99.90;;;;;;4993209;28;20049;-76
2024/01/11 07:22:08;;;;;;;44.78;23.13;;;-3.50;99.90;;;;;;5026919;28;20045;-76
2024/01/11 07:24:37;;;;;;;44.10;22.73;;;-3.50;99.90;;;;;;5023114;28;20099;-77
2024/01/11 07:27:05;;;;;;;45.60;22.80;;;-3.40;99.90;;;;;;5027403;28;20591;-76
2024/01/11 07:29:30;;;;;;;49.70;24.38;;;-3.40;99.90;;;;;;5026363;28;20049;-77
2024/01/11 07:31:56;;;;;;;43.78;22.98;;;-3.30;99.90;;;;;;5027932;28;20060;-77
2024/01/11 07:34:22;;;;;;;44.95;22.73;;;-3.30;99.90;;;;;;5024204;28;20607;-77
2024/01/11 07:36:47;;;;;;;51.85;24.23;;;-3.30;99.90;;;;;;5024871;28;20045;-77
2024/01/11 07:39:13;;;;;;;45.03;23.67;;;-3.20;99.90;;;;;;5026327;28;20037;-77
2024/01/11 07:41:38;;;;;;;54.22;26.35;;;-3.20;99.90;;;;;;4996621;28;20461;-77
2024/01/11 07:44:04;;;;;;;52.90;26.60;;;-3.10;99.90;;;;;;5022794;28;20100;-77
2024/01/11 07:46:29;;;;;;;55.00;26.25;;;-3.10;99.90;;;;;;5026088;28;20080;-77
2024/01/11 07:48:55;;;;;;;49.30;24.88;;;-3.10;99.90;;;;;;5026376;28;20045;-77
2024/01/11 07:51:20;;;;;;;51.80;26.80;;;-3.00;99.90;;;;;;5041610;28;20076;-77
2024/01/11 07:53:46;;;;;;;43.50;22.88;;;-3.00;99.90;;;;;;5038687;28;20037;-77
2024/01/11 07:56:12;;;;;;;48.63;24.38;;;-3.00;99.90;;;;;;5027208;28;20041;-77
2024/01/11 07:58:37;;;;;;;49.35;24.58;;;-2.90;99.90;;;;;;5009710;28;20049;-79
2024/01/11 08:01:04;;;;;;;45.15;23.58;;;-2.90;99.90;;;;;;5046995;28;20048;-77
2024/01/11 08:03:29;;;;;;;44.90;23.88;;;-2.90;99.90;;;;;;5031256;28;20061;-78
2024/01/11 08:05:56;;;;;;;48.67;24.33;;;-2.80;99.90;;;;;;5026718;28;20072;-80
2024/01/11 08:08:22;;;;;;;42.53;21.80;;;-2.80;99.90;;;;;;5027144;28;20051;-77
2024/01/11 08:10:49;;;;;;;46.67;24.00;;;-2.80;99.90;;;;;;5030068;28;20049;-78
2024/01/11 08:13:15;;;;;;;45.92;23.73;;;-2.70;99.90;;;;;;5012613;28;20058;-79
2024/01/11 08:15:41;;;;;;;46.38;24.65;;;-2.70;99.90;;;;;;5029159;28;20030;-78
2024/01/11 08:18:07;;;;;;;47.05;24.08;;;-2.70;99.90;;;;;;5029995;28;20057;-79
2024/01/11 08:20:32;;;;;;;47.58;24.00;;;-2.70;99.90;;;;;;5029525;28;20048;-79
2024/01/11 08:22:58;;;;;;;46.80;24.58;;;-2.60;99.90;;;;;;5022850;28;20458;-76
2024/01/11 08:25:24;;;;;;;49.58;24.98;;;-2.60;99.90;;;;;;5017338;28;20045;-78
2024/01/11 08:27:49;;;;;;;46.83;24.42;;;-2.50;99.90;;;;;;5029955;28;20041;-78
2024/01/11 08:30:15;;;;;;;48.55;26.52;;;-2.50;99.90;;;;;;5030004;28;20045;-78
2024/01/11 08:32:41;;;;;;;49.70;27.00;;;-2.50;99.90;;;;;;5030530;28;20518;-78
2024/01/11 08:35:09;;;;;;;49.10;26.30;;;-2.40;99.90;;;;;;5029728;28;20392;-78
2024/01/11 08:37:35;;;;;;;42.63;23.77;;;-2.40;99.90;;;;;;5028544;28;20053;-78
2024/01/11 08:40:04;;;;;;;42.33;22.13;;;-2.40;99.90;;;;;;5028729;28;20041;-78
2024/01/11 08:42:30;;;;;;;47.72;24.58;;;-2.30;99.90;;;;;;5028099;28;20049;-78
2024/01/11 08:44:56;;;;;;;46.90;24.58;;;-2.20;99.90;;;;;;5010433;28;20137;-78
2024/01/11 08:47:21;;;;;;;46.72;24.80;;;-2.30;99.90;;;;;;5030898;28;20128;-78
2024/01/11 08:49:47;;;;;;;51.17;27.77;;;-2.20;99.90;;;;;;5010579;28;20049;-78
2024/01/11 08:52:12;;;;;;;48.60;25.95;;;-2.20;99.90;;;;;;5012209;28;20053;-78
2024/01/11 08:54:38;;;;;;;47.08;24.73;;;-2.10;99.90;;;;;;5040062;28;20047;-78
2024/01/11 08:57:04;;;;;;;46.38;22.98;;;-2.10;99.90;;;;;;5024779;28;20107;-78
2024/01/11 08:59:30;;;;;;;45.20;23.90;;;-1.90;99.90;;;;;;5018159;28;20064;-79
2024/01/11 09:01:55;;;;;;;43.88;21.75;;;-2.00;99.90;;;;;;5012186;28;20092;-77
2024/01/11 09:04:21;;;;;;;43.78;22.30;;;-1.90;99.90;;;;;;5029101;28;20045;-78
2024/01/11 09:06:47;;;;;;;45.22;22.27;;;-1.90;99.90;;;;;;5001763;28;20406;-78
2024/01/11 09:09:13;;;;;;;44.78;24.00;;;-1.80;99.90;;;;;;5042853;28;20041;-78
2024/01/11 09:11:42;;;;;;;42.88;22.60;;;-1.80;99.90;;;;;;5029684;28;20054;-77
2024/01/11 09:14:10;;;;;;;40.80;22.58;;;-1.70;99.90;;;;;;4995284;28;20045;-77
2024/01/11 09:16:36;;;;;;;44.78;23.20;;;-1.70;99.90;;;;;;5012711;28;20060;-78
2024/01/11 09:19:02;;;;;;;40.15;21.48;;;-1.70;99.90;;;;;;5011371;28;20408;-77
2024/01/11 09:21:27;;;;;;;48.65;23.88;;;-1.60;99.90;;;;;;5029219;28;20045;-78
2024/01/11 09:23:53;;;;;;;42.08;23.45;;;-1.60;99.90;;;;;;5031631;28;20055;-78
2024/01/11 09:26:19;;;;;;;42.38;22.20;;;-1.50;99.90;;;;;;5011887;28;20053;-77
2024/01/11 09:28:45;;;;;;;42.38;21.95;;;-1.40;99.90;;;;;;5009579;28;20042;-77
2024/01/11 09:31:11;;;;;;;44.25;23.13;;;-1.40;99.90;;;;;;5030405;28;20068;-78
2024/01/11 09:33:37;;;;;;;42.10;21.15;;;-1.40;99.90;;;;;;5039532;28;20042;-78
2024/01/11 09:36:04;;;;;;;44.40;23.05;;;-1.30;99.90;;;;;;5021176;28;20140;-79
2024/01/11 09:38:30;;;;;;;45.08;23.02;;;-1.20;99.90;;;;;;5048662;28;20059;-80
2024/01/11 09:41:13;;;;;;;45.03;23.02;;;-1.20;99.90;;;;;;5030698;28;20053;-79
2024/01/11 09:43:41;;;;;;;39.70;20.92;;;-1.10;99.90;;;;;;5028993;28;20085;-79
2024/01/11 09:46:07;;;;;;;47.03;22.58;;;-1.10;99.90;;;;;;5025161;28;20145;-78
2024/01/11 09:48:34;;;;;;;44.63;23.00;;;-1.00;99.90;;;;;;5028950;28;20068;-80
2024/01/11 09:51:06;;;;;;;40.22;21.77;;;-1.00;99.90;;;;;;5028325;28;20053;-80
2024/01/11 09:53:33;;;;;;;43.17;22.35;;;-0.90;99.90;;;;;;5025787;28;20491;-80
2024/01/11 09:56:04;;;;;;;39.55;21.42;;;-0.80;99.90;;;;;;5007919;28;20407;-80
2024/01/11 09:58:30;;;;;;;43.25;21.90;;;-0.80;99.90;;;;;;5007066;28;20551;-79
2024/01/11 10:00:56;;;;;;;40.60;20.55;;;-0.70;99.90;;;;;;5013732;28;20045;-79
2024/01/11 10:03:26;;;;;;;42.38;21.33;;;-0.70;99.90;;;;;;5010038;28;20402;-80
2024/01/11 10:05:56;;;;;;;39.88;22.15;;;-0.60;99.90;;;;;;5028122;28;20094;-79
2024/01/11 10:08:23;;;;;;;37.40;21.05;;;-0.60;99.90;;;;;;5026583;28;20048;-79
2024/01/11 10:10:48;;;;;;;41.53;21.88;;;-0.50;99.90;;;;;;5028416;28;20048;-79
2024/01/11 10:13:16;;;;;;;41.40;20.77;;;-0.40;99.90;;;;;;5029449;28;20041;-79
2024/01/11 10:15:42;;;;;;;37.95;20.92;;;-0.40;99.90;;;;;;5028549;28;20071;-78
2024/01/11 10:18:07;;;;;;;42.97;21.23;;;-0.30;99.90;;;;;;5011683;28;20532;-78
2024/01/11 10:20:33;;;;;;;41.78;21.08;;;-0.30;99.90;;;;;;5028395;28;20045;-78
2024/01/11 10:22:59;;;;;;;38.92;20.70;;;-0.30;99.90;;;;;;5038703;28;20091;-79
2024/01/11 10:25:24;;;;;;;38.42;20.50;;;-0.20;99.90;;;;;;5048304;28;20049;-78
2024/01/11 10:27:50;;;;;;;40.55;21.10;;;-0.10;99.90;;;;;;5046879;28;20873;-78
2024/01/11 10:30:16;;;;;;;39.83;21.23;;;-0.10;99.90;;;;;;5048428;28;20476;-79
2024/01/11 10:32:44;;;;;;;41.80;21.40;;;0.00;99.90;;;;;;5034691;28;20059;-79
2024/01/11 10:35:10;;;;;;;38.53;20.70;;;0.00;99.90;;;;;;5010251;28;20064;-78
2024/01/11 10:37:38;;;;;;;36.38;19.27;;;0.10;99.90;;;;;;5009777;28;20041;-79
2024/01/11 10:40:15;;;;;;;37.15;19.92;;;0.10;99.90;;;;;;5025192;28;20641;-79
2024/01/11 10:42:51;;;;;;;37.75;19.88;;;0.10;99.90;;;;;;5040271;28;20135;-79
2024/01/11 10:45:19;;;;;;;35.60;19.35;;;0.20;99.90;;;;;;5010522;28;20107;-79
2024/01/11 10:47:59;;;;;;;34.85;19.15;;;0.20;99.90;;;;;;5035926;28;20034;-79
2024/01/11 10:50:25;;;;;;;39.55;20.90;;;0.30;99.90;;;;;;5027412;28;20068;-79
2024/01/11 10:53:01;;;;;;;36.65;20.70;;;0.30;99.90;;;;;;5024395;28;20049;-79
2024/01/11 10:55:27;;;;;;;38.40;19.70;;;0.30;99.90;;;;;;5033887;28;20056;-78
2024/01/11 10:57:54;;;;;;;38.42;20.30;;;0.40;99.90;;;;;;5022196;28;20076;-78
2024/01/11 11:00:22;;;;;;;37.58;20.15;;;0.40;99.90;;;;;;5045886;28;20041;-78
2024/01/11 11:02:50;;;;;;;35.92;20.27;;;0.40;99.90;;;;;;5012674;28;20054;-78
2024/01/11 11:05:18;;;;;;;33.55;18.75;;;0.40;99.90;;;;;;5009250;28;20053;-79
2024/01/11 11:07:44;;;;;;;36.30;18.65;;;0.50;99.90;;;;;;4993374;28;20059;-78
2024/01/11 11:10:12;;;;;;;43.42;19.90;;;0.50;99.90;;;;;;5032627;28;20049;-78
2024/01/11 11:12:38;;;;;;;34.83;19.70;;;0.50;99.90;;;;;;4982736;28;20050;-78
2024/01/11 11:15:06;;;;;;;36.80;20.02;;;0.50;99.90;;;;;;5026504;28;20064;-78
2024/01/11 11:17:32;;;;;;;33.60;19.10;;;0.50;99.90;;;;;;5027593;28;20057;-78
2024/01/11 11:19:58;;;;;;;36.40;19.92;;;0.60;99.90;;;;;;5026926;28;20049;-79
2024/01/11 11:22:27;;;;;;;39.00;19.65;;;0.60;99.90;;;;;;5027455;28;20046;-78
2024/01/11 11:25:07;;;;;;;33.95;19.95;;;0.70;99.90;;;;;;5009303;28;20037;-78
2024/01/11 11:27:33;;;;;;;33.13;18.55;;;0.70;99.90;;;;;;5028661;28;20045;-78
2024/01/11 11:29:59;;;;;;;33.63;18.38;;;0.70;99.90;;;;;;5046691;28;20052;-79
2024/01/11 11:32:38;;;;;;;34.17;21.17;;;0.70;99.90;;;;;;5035037;28;20095;-78
2024/01/11 11:35:08;;;;;;;37.58;20.38;;;0.70;99.90;;;;;;5022454;28;20087;-78
2024/01/11 11:37:37;;;;;;;33.42;18.88;;;0.70;99.90;;;;;;5005527;28;20045;-78
2024/01/11 11:40:03;;;;;;;30.65;18.00;;;0.80;99.90;;;;;;5027404;28;20136;-79
2024/01/11 11:42:30;;;;;;;35.28;19.38;;;0.80;99.90;;;;;;5030427;28;20129;-78
2024/01/11 11:44:57;;;;;;;31.50;18.30;;;0.80;99.90;;;;;;4996098;28;20104;-79
2024/01/11 11:47:23;;;;;;;36.88;20.15;;;0.80;99.90;;;;;;5031221;28;20073;-78
2024/01/11 11:49:59;;;;;;;33.13;18.42;;;0.90;99.90;;;;;;5029601;28;20045;-78
2024/01/11 11:52:25;;;;;;;36.78;18.95;;;0.90;99.90;;;;;;5026160;28;20037;-78
2024/01/11 11:54:52;;;;;;;34.28;19.38;;;0.90;99.90;;;;;;5030820;28;20054;-79
2024/01/11 11:57:19;;;;;;;31.95;18.52;;;0.90;99.90;;;;;;5028983;28;20029;-78
2024/01/11 11:59:44;;;;;;;32.67;18.17;;;0.90;99.90;;;;;;5012843;28;20048;-78
2024/01/11 12:02:16;;;;;;;34.38;19.50;;;0.90;99.90;;;;;;5040375;28;20057;-78
2024/01/11 12:04:47;;;;;;;33.63;19.42;;;0.90;99.90;;;;;;5030127;28;20526;-78
2024/01/11 12:07:12;;;;;;;34.20;19.45;;;1.00;99.90;;;;;;5011456;28;20128;-78
2024/01/11 12:09:38;;;;;;;34.33;18.42;;;1.00;99.90;;;;;;5028823;28;20231;-79
2024/01/11 12:12:04;;;;;;;31.38;17.25;;;1.00;99.90;;;;;;5030873;28;20041;-78
2024/01/11 12:14:30;;;;;;;30.38;18.63;;;1.00;99.90;;;;;;5011818;28;20064;-79
2024/01/11 12:16:59;;;;;;;36.08;19.92;;;1.00;99.90;;;;;;5012243;28;20586;-79
2024/01/11 12:19:25;;;;;;;31.98;19.70;;;1.00;99.90;;;;;;5011887;28;20080;-78
2024/01/11 12:21:51;;;;;;;33.78;19.30;;;1.10;99.90;;;;;;5032205;28;20045;-78
2024/01/11 12:24:17;;;;;;;29.90;17.73;;;1.00;99.90;;;;;;5012194;28;20052;-79